createdAt,value
2023-06-10T00:00:47.868Z,3.17
2023-06-10T00:03:16.961Z,3.05
2023-06-10T00:05:45.839Z,2.83
2023-06-10T00:08:16.824Z,2.78
2023-06-10T00:10:45.681Z,3.30
2023-06-10T00:13:14.183Z,2.85
2023-06-10T00:15:42.779Z,2.83
2023-06-10T00:18:11.407Z,2.95
2023-06-10T00:20:40.207Z,2.88
2023-06-10T00:23:09.515Z,4.32
2023-06-10T00:25:39.436Z,3.20
2023-06-10T00:28:07.951Z,2.88
2023-06-10T00:30:36.501Z,2.58
2023-06-10T00:33:05.093Z,2.75
2023-06-10T00:35:36.981Z,3.05
2023-06-10T00:38:05.556Z,3.10
2023-06-10T00:40:40.845Z,3.03
2023-06-10T00:43:11.336Z,4.45
2023-06-10T00:45:39.909Z,2.85
2023-06-10T00:48:09.244Z,3.38
2023-06-10T00:50:40.189Z,3.47
2023-06-10T00:53:09.272Z,3.10
2023-06-10T00:55:38.933Z,3.08
2023-06-10T00:58:08.156Z,3.05
2023-06-10T01:00:38.220Z,3.33
2023-06-10T01:03:09.134Z,2.42
2023-06-10T01:05:38.377Z,3.28
2023-06-10T01:08:12.909Z,3.08
2023-06-10T01:10:45.759Z,3.10
2023-06-10T01:13:15.670Z,2.72
2023-06-10T01:15:46.122Z,2.90
2023-06-10T01:18:16.138Z,2.58
2023-06-10T01:20:47.599Z,3.17
2023-06-10T01:23:18.063Z,2.70
2023-06-10T01:25:51.840Z,2.95
2023-06-10T01:28:28.105Z,2.65
2023-06-10T01:31:04.987Z,2.90
2023-06-10T01:33:36.022Z,2.65
2023-06-10T01:36:05.686Z,2.75
2023-06-10T01:38:41.771Z,3.50
2023-06-10T01:41:11.581Z,2.22
2023-06-10T01:43:40.631Z,2.97
2023-06-10T01:46:09.466Z,2.97
2023-06-10T01:48:39.081Z,2.85
2023-06-10T01:51:07.686Z,3.03
2023-06-10T01:53:39.822Z,2.47
2023-06-10T01:56:08.308Z,3.40
2023-06-10T01:58:36.804Z,3.17
2023-06-10T02:01:05.542Z,2.90
2023-06-10T02:03:34.107Z,2.95
2023-06-10T02:06:02.646Z,3.45
2023-06-10T02:08:31.073Z,2.53
2023-06-10T02:11:04.027Z,2.85
2023-06-10T02:13:33.126Z,3.25
2023-06-10T02:16:02.085Z,2.20
2023-06-10T02:18:31.718Z,4.22
2023-06-10T02:21:00.173Z,2.63
2023-06-10T02:23:28.990Z,3.03
2023-06-10T02:25:57.492Z,2.53
2023-06-10T02:28:28.787Z,3.33
2023-06-10T02:30:58.173Z,3.47
2023-06-10T02:33:28.208Z,3.03
2023-06-10T02:35:57.442Z,2.38
2023-06-10T02:38:27.127Z,2.58
2023-06-10T02:40:56.786Z,2.90
2023-06-10T02:43:26.048Z,2.83
2023-06-10T02:45:56.110Z,2.75
2023-06-10T02:48:26.254Z,3.03
2023-06-10T02:50:54.991Z,3.13
2023-06-10T02:53:30.563Z,2.80
2023-06-10T02:56:06.706Z,3.30
2023-06-10T02:58:35.231Z,3.00
2023-06-10T03:01:05.468Z,3.22
2023-06-10T03:03:43.786Z,2.40
2023-06-10T03:06:15.298Z,2.22
2023-06-10T03:08:44.502Z,3.20
2023-06-10T03:11:16.908Z,2.58
2023-06-10T03:13:45.513Z,2.83
2023-06-10T03:16:18.506Z,2.78
2023-06-10T03:18:47.981Z,2.63
2023-06-10T03:21:16.733Z,3.70
2023-06-10T03:23:45.364Z,3.10
2023-06-10T03:26:15.303Z,3.13
2023-06-10T03:28:46.426Z,2.70
2023-06-10T03:31:14.855Z,3.00
2023-06-10T03:33:45.111Z,2.60
2023-06-10T03:36:14.191Z,2.40
2023-06-10T03:38:42.810Z,2.38
2023-06-10T03:41:11.811Z,2.53
2023-06-10T03:43:43.165Z,3.20
2023-06-10T03:46:11.746Z,3.25
2023-06-10T03:48:41.419Z,2.60
2023-06-10T03:51:11.303Z,3.13
2023-06-10T03:53:39.924Z,2.65
2023-06-10T03:56:08.536Z,2.90
2023-06-10T03:58:37.054Z,3.53
2023-06-10T04:01:08.339Z,3.25
2023-06-10T04:03:37.839Z,2.90
2023-06-10T04:06:06.525Z,3.13
2023-06-10T04:08:37.064Z,3.05
2023-06-10T04:11:05.539Z,3.30
2023-06-10T04:13:34.026Z,2.33
2023-06-10T04:16:03.532Z,2.53
2023-06-10T04:18:32.062Z,2.78
2023-06-10T04:21:05.062Z,2.65
2023-06-10T04:23:37.842Z,3.10
2023-06-10T04:26:07.672Z,3.00
2023-06-10T04:28:37.276Z,3.78
2023-06-10T04:31:05.948Z,3.45
2023-06-10T04:33:34.557Z,3.25
2023-06-10T04:36:06.410Z,3.15
2023-06-10T04:38:36.377Z,2.63
2023-06-10T04:41:05.170Z,3.53
2023-06-10T04:43:36.650Z,2.58
2023-06-10T04:46:07.839Z,2.85
2023-06-10T04:48:38.186Z,2.67
2023-06-10T04:51:07.254Z,3.45
2023-06-10T04:53:37.526Z,3.28
2023-06-10T04:56:06.158Z,2.42
2023-06-10T04:58:34.600Z,2.83
2023-06-10T05:01:03.140Z,3.30
2023-06-10T05:03:31.753Z,3.13
2023-06-10T05:06:00.358Z,2.75
2023-06-10T05:08:28.859Z,3.42
2023-06-10T05:10:59.489Z,3.22
2023-06-10T05:13:28.013Z,3.75
2023-06-10T05:15:56.558Z,3.17
2023-06-10T05:18:25.146Z,3.08
2023-06-10T05:20:54.961Z,3.72
2023-06-10T05:23:23.494Z,3.63
2023-06-10T05:25:52.029Z,3.13
2023-06-10T05:28:21.877Z,2.72
2023-06-10T05:30:50.844Z,3.17
2023-06-10T05:33:19.442Z,2.13
2023-06-10T05:35:47.986Z,2.65
2023-06-10T05:38:16.555Z,3.45
2023-06-10T05:40:44.989Z,3.28
2023-06-10T05:43:13.506Z,3.25
2023-06-10T05:45:43.401Z,2.53
2023-06-10T05:48:11.997Z,3.17
2023-06-10T05:50:43.468Z,3.50
2023-06-10T05:53:16.019Z,3.00
2023-06-10T05:55:44.953Z,3.20
2023-06-10T05:58:13.739Z,2.90
2023-06-10T06:00:43.751Z,2.80
2023-06-10T06:03:12.529Z,2.67
2023-06-10T06:05:41.134Z,3.55
2023-06-10T06:08:10.222Z,2.97
2023-06-10T06:10:38.679Z,3.22
2023-06-10T06:13:07.138Z,3.00
2023-06-10T06:15:36.719Z,3.20
2023-06-10T06:18:06.713Z,2.47
2023-06-10T06:20:35.182Z,3.00
2023-06-10T06:23:03.650Z,2.35
2023-06-10T06:25:32.191Z,3.67
2023-06-10T06:28:00.671Z,3.28
2023-06-10T06:30:29.197Z,2.67
2023-06-10T06:32:57.696Z,2.80
2023-06-10T06:35:27.517Z,2.35
2023-06-10T06:37:56.027Z,2.70
2023-06-10T06:40:29.109Z,2.63
2023-06-10T06:42:57.697Z,2.60
2023-06-10T06:45:40.960Z,2.28
2023-06-10T06:48:09.640Z,3.25
2023-06-10T06:50:39.690Z,3.05
2023-06-10T06:53:08.171Z,2.92
2023-06-10T06:55:36.624Z,2.85
2023-06-10T06:58:05.443Z,3.10
2023-06-10T07:00:34.231Z,2.88
2023-06-10T07:03:02.751Z,2.78
2023-06-10T07:05:32.071Z,2.83
2023-06-10T07:08:02.071Z,3.83
2023-06-10T07:10:30.766Z,3.63
2023-06-10T07:12:59.314Z,3.42
2023-06-10T07:15:27.785Z,3.25
2023-06-10T07:17:56.743Z,2.95
2023-06-10T07:20:25.421Z,3.03
2023-06-10T07:22:53.932Z,6.20
2023-06-10T07:25:23.825Z,6.10
2023-06-10T07:27:52.365Z,4.15
2023-06-10T07:30:20.948Z,5.45
2023-06-10T07:32:49.503Z,5.78
2023-06-10T07:35:18.098Z,6.10
2023-06-10T07:37:46.616Z,4.25
2023-06-10T07:40:15.564Z,4.95
2023-06-10T07:42:45.518Z,5.88
2023-06-10T07:45:13.985Z,4.30
2023-06-10T07:47:42.496Z,6.70
2023-06-10T07:50:11.898Z,8.57
2023-06-10T07:52:40.511Z,5.57
2023-06-10T07:55:09.743Z,4.10
2023-06-10T07:57:39.539Z,7.78
2023-06-10T08:00:11.369Z,4.68
2023-06-10T08:02:43.111Z,4.82
2023-06-10T08:05:11.979Z,6.35
2023-06-10T08:07:41.153Z,4.32
2023-06-10T08:10:10.549Z,4.72
2023-06-10T08:12:39.311Z,5.47
2023-06-10T08:15:10.631Z,4.75
2023-06-10T08:17:39.598Z,6.15
2023-06-10T08:20:09.162Z,4.53
2023-06-10T08:22:37.652Z,5.03
2023-06-10T08:25:07.343Z,6.68
2023-06-10T08:27:36.135Z,5.63
2023-06-10T08:30:05.194Z,5.07
2023-06-10T08:32:35.091Z,4.85
2023-06-10T08:35:04.046Z,6.25
2023-06-10T08:37:32.519Z,4.65
2023-06-10T08:40:00.982Z,4.38
2023-06-10T08:42:36.491Z,4.75
2023-06-10T08:45:07.140Z,4.97
2023-06-10T08:47:38.334Z,4.03
2023-06-10T08:50:10.779Z,4.43
2023-06-10T08:52:45.213Z,3.42
2023-06-10T08:55:19.022Z,5.60
2023-06-10T09:00:18.218Z,6.03
2023-06-10T09:02:49.118Z,4.65
2023-06-10T09:05:18.382Z,3.92
2023-06-10T09:07:49.176Z,6.25
2023-06-10T09:10:18.348Z,4.03
2023-06-10T09:12:47.026Z,4.85
2023-06-10T09:15:15.800Z,4.95
2023-06-10T09:17:44.404Z,5.07
2023-06-10T09:20:14.760Z,4.43
2023-06-10T09:22:44.075Z,5.50
2023-06-10T09:25:14.342Z,4.57
2023-06-10T09:27:51.378Z,4.18
2023-06-10T09:30:28.182Z,4.28
2023-06-10T09:32:58.233Z,4.95
2023-06-10T09:35:29.438Z,5.82
2023-06-10T09:37:59.488Z,3.92
2023-06-10T09:40:28.789Z,3.47
2023-06-10T09:42:59.030Z,4.65
2023-06-10T09:45:32.591Z,4.70
2023-06-10T09:48:01.766Z,3.88
2023-06-10T09:50:35.356Z,3.55
2023-06-10T09:53:04.065Z,4.78
2023-06-10T09:55:35.433Z,4.25
2023-06-10T09:58:03.942Z,4.43
2023-06-10T10:00:34.973Z,4.50
2023-06-10T10:03:04.380Z,3.03
2023-06-10T10:05:34.474Z,4.70
2023-06-10T10:08:03.158Z,4.85
2023-06-10T10:10:31.659Z,4.20
2023-06-10T10:13:00.473Z,3.45
2023-06-10T10:15:33.482Z,4.10
2023-06-10T10:18:08.649Z,4.25
2023-06-10T10:20:46.443Z,4.68
2023-06-10T10:23:20.474Z,4.07
2023-06-10T10:25:55.901Z,5.10
2023-06-10T10:28:27.889Z,4.25
2023-06-10T10:31:04.127Z,8.65
2023-06-10T10:33:38.559Z,4.32
2023-06-10T10:36:09.639Z,4.78
2023-06-10T10:38:38.383Z,4.18
2023-06-10T10:41:07.809Z,3.38
2023-06-10T10:43:36.565Z,5.22
2023-06-10T10:46:13.921Z,4.18
2023-06-10T10:48:43.152Z,5.03
2023-06-10T10:51:13.660Z,4.50
2023-06-10T10:53:45.501Z,3.88
2023-06-10T10:56:16.174Z,4.15
2023-06-10T10:58:44.771Z,4.95
2023-06-10T11:01:14.156Z,4.25
2023-06-10T11:03:48.308Z,4.53
2023-06-10T11:06:20.540Z,3.95
2023-06-10T11:08:50.013Z,4.78
2023-06-10T11:11:23.569Z,4.10
2023-06-10T11:14:07.602Z,4.25
2023-06-10T11:16:41.578Z,4.20
2023-06-10T11:22:01.972Z,3.30
2023-06-10T11:24:31.337Z,4.13
2023-06-10T11:27:18.182Z,5.10
2023-06-10T11:30:21.533Z,3.90
2023-06-10T11:32:54.045Z,4.03
2023-06-10T11:35:25.929Z,3.83
2023-06-10T11:37:56.363Z,4.13
2023-06-10T11:40:24.793Z,3.95
2023-06-10T11:42:53.548Z,3.75
2023-06-10T11:45:22.045Z,3.42
2023-06-10T11:48:00.475Z,4.10
2023-06-10T11:50:33.753Z,4.90
2023-06-10T11:53:03.712Z,4.07
2023-06-10T11:55:44.114Z,4.68
2023-06-10T11:58:16.531Z,3.92
2023-06-10T12:00:49.458Z,6.25
2023-06-10T12:03:18.769Z,3.95
2023-06-10T12:06:01.476Z,4.50
2023-06-10T12:08:33.873Z,4.40
2023-06-10T12:11:04.026Z,3.92
2023-06-10T12:13:32.466Z,4.32
2023-06-10T12:16:08.823Z,4.13
2023-06-10T12:18:37.584Z,4.35
2023-06-10T12:21:17.947Z,4.05
2023-06-10T12:24:09.790Z,4.00
2023-06-10T12:26:40.063Z,4.25
2023-06-10T12:29:21.959Z,4.47
2023-06-10T12:31:58.849Z,4.05
2023-06-10T12:34:32.075Z,3.85
2023-06-10T12:37:00.854Z,3.72
2023-06-10T12:39:30.840Z,3.72
2023-06-10T12:41:59.616Z,3.78
2023-06-10T12:44:35.355Z,3.72
2023-06-10T12:47:10.767Z,3.05
2023-06-10T12:49:39.610Z,4.90
2023-06-10T12:52:09.230Z,3.92
2023-06-10T12:54:39.432Z,4.00
2023-06-10T12:57:08.078Z,3.65
2023-06-10T12:59:36.590Z,4.03
2023-06-10T13:02:05.534Z,3.58
2023-06-10T13:04:33.995Z,4.82
2023-06-10T13:07:02.566Z,3.53
2023-06-10T13:09:31.285Z,4.00
2023-06-10T13:12:01.898Z,4.07
2023-06-10T13:14:30.489Z,4.45
2023-06-10T13:16:58.982Z,4.20
2023-06-10T13:19:27.528Z,3.80
2023-06-10T13:21:55.991Z,4.45
2023-06-10T13:24:24.530Z,4.20
2023-06-10T13:26:53.127Z,4.15
2023-06-10T13:29:23.037Z,3.50
2023-06-10T13:31:51.744Z,3.40
2023-06-10T13:34:20.377Z,3.72
2023-06-10T13:36:48.907Z,3.50
2023-06-10T13:39:17.435Z,4.57
2023-06-10T13:41:45.873Z,3.70
2023-06-10T13:44:14.407Z,4.22
2023-06-10T13:46:45.333Z,3.65
2023-06-10T13:49:15.161Z,4.57
2023-06-10T13:51:43.627Z,4.88
2023-06-10T13:54:12.134Z,3.50
2023-06-10T13:56:40.602Z,3.53
2023-06-10T13:59:09.074Z,3.58
2023-06-10T14:01:38.075Z,3.08
2023-06-10T14:04:08.589Z,3.50
2023-06-10T14:06:37.090Z,4.07
2023-06-10T14:09:05.960Z,3.63
2023-06-10T14:11:35.180Z,3.88
2023-06-10T14:14:03.775Z,4.18
2023-06-10T14:16:32.296Z,3.75
2023-06-10T14:19:01.628Z,4.32
2023-06-10T14:21:31.369Z,5.28
2023-06-10T14:23:59.777Z,6.25
2023-06-10T14:26:28.361Z,4.35
2023-06-10T14:28:56.847Z,3.72
2023-06-10T14:31:25.402Z,5.32
2023-06-10T14:33:53.873Z,4.05
2023-06-10T14:36:22.318Z,4.05
2023-06-10T14:38:52.304Z,5.00
2023-06-10T14:41:20.879Z,5.05
2023-06-10T14:43:49.323Z,4.75
2023-06-10T14:46:17.852Z,5.05
2023-06-10T14:48:46.437Z,5.70
2023-06-10T14:51:15.027Z,3.58
2023-06-10T14:53:43.416Z,5.22
2023-06-10T14:56:13.544Z,4.25
2023-06-10T14:58:42.021Z,6.70
2023-06-10T15:01:10.703Z,6.07
2023-06-10T15:03:39.235Z,4.25
2023-06-10T15:06:07.676Z,4.35
2023-06-10T15:08:36.251Z,5.05
2023-06-10T15:11:04.715Z,5.47
2023-06-10T15:13:34.556Z,4.75
2023-06-10T15:16:04.135Z,5.38
2023-06-10T15:18:32.804Z,5.57
2023-06-10T15:21:01.285Z,6.03
2023-06-10T15:23:29.681Z,5.22
2023-06-10T15:25:58.243Z,4.60
2023-06-10T15:28:28.749Z,5.03
2023-06-10T15:30:58.833Z,5.05
2023-06-10T15:33:27.354Z,4.47
2023-06-10T15:35:55.850Z,5.15
2023-06-10T15:38:24.366Z,4.57
2023-06-10T15:40:54.727Z,5.40
2023-06-10T15:43:23.218Z,4.55
2023-06-10T15:45:51.804Z,4.85
2023-06-10T15:48:21.632Z,4.65
2023-06-10T15:50:50.039Z,6.10
2023-06-10T15:53:18.516Z,4.72
2023-06-10T15:55:46.978Z,4.07
2023-06-10T15:58:15.699Z,4.35
2023-06-10T16:00:44.135Z,4.50
2023-06-10T16:03:12.692Z,3.83
2023-06-10T16:05:42.564Z,4.18
2023-06-10T16:08:10.978Z,4.10
2023-06-10T16:10:39.406Z,4.47
2023-06-10T16:13:08.119Z,3.58
2023-06-10T16:15:39.418Z,4.50
2023-06-10T16:18:10.311Z,4.65
2023-06-10T16:20:38.751Z,3.88
2023-06-10T16:23:08.568Z,4.45
2023-06-10T16:25:37.055Z,3.63
2023-06-10T16:28:06.534Z,3.85
2023-06-10T16:30:35.224Z,4.97
2023-06-10T16:33:03.748Z,3.35
2023-06-10T16:35:32.486Z,3.45
2023-06-10T16:38:03.430Z,4.05
2023-06-10T16:40:33.711Z,4.40
2023-06-10T16:43:02.217Z,4.40
2023-06-10T16:45:30.662Z,4.22
2023-06-10T16:47:59.148Z,4.53
2023-06-10T16:50:27.636Z,4.05
2023-06-10T16:52:56.077Z,3.88
2023-06-10T16:55:24.553Z,3.60
2023-06-10T16:57:54.440Z,4.50
2023-06-10T17:00:22.914Z,4.15
2023-06-10T17:02:51.426Z,3.42
2023-06-10T17:05:19.852Z,5.30
2023-06-10T17:07:48.888Z,4.45
2023-06-10T17:10:17.413Z,3.80
2023-06-10T17:12:46.645Z,3.65
2023-06-10T17:15:16.861Z,5.03
2023-06-10T17:17:45.582Z,3.63
2023-06-10T17:20:14.239Z,3.78
2023-06-10T17:22:42.707Z,3.80
2023-06-10T17:25:11.734Z,5.65
2023-06-10T17:27:40.581Z,4.78
2023-06-10T17:30:10.123Z,7.97
2023-06-10T17:32:41.218Z,7.20
2023-06-10T17:35:11.257Z,5.60
2023-06-10T17:37:40.317Z,3.83
2023-06-10T17:40:09.896Z,9.50
2023-06-10T17:42:38.377Z,4.47
2023-06-10T17:45:08.291Z,4.10
2023-06-10T17:47:37.318Z,8.40
2023-06-10T17:50:08.206Z,4.68
2023-06-10T17:52:36.650Z,5.82
2023-06-10T17:55:06.101Z,5.55
2023-06-10T17:57:34.737Z,5.22
2023-06-10T18:00:03.198Z,4.20
2023-06-10T18:02:36.597Z,6.22
2023-06-10T18:05:07.419Z,6.35
2023-06-10T18:07:36.142Z,4.88
2023-06-10T18:10:04.820Z,4.10
2023-06-10T18:12:33.357Z,4.20
2023-06-10T18:15:01.876Z,5.53
2023-06-10T18:17:32.040Z,7.43
2023-06-10T18:20:00.551Z,3.85
2023-06-10T18:22:30.561Z,4.93
2023-06-10T18:24:59.291Z,6.55
2023-06-10T18:27:27.870Z,4.20
2023-06-10T18:29:56.394Z,6.13
2023-06-10T18:32:25.066Z,5.35
2023-06-10T18:34:53.999Z,5.68
2023-06-10T18:37:22.545Z,5.72
2023-06-10T18:39:52.440Z,10.13
2023-06-10T18:42:20.877Z,6.40
2023-06-10T18:44:49.378Z,3.53
2023-06-10T18:47:17.863Z,7.30
2023-06-10T18:49:47.309Z,5.05
2023-06-10T18:52:15.790Z,4.45
2023-06-10T18:54:44.378Z,4.55
2023-06-10T18:57:14.468Z,4.47
2023-06-10T18:59:43.870Z,5.25
2023-06-10T19:02:12.483Z,6.93
2023-06-10T19:04:41.003Z,4.60
2023-06-10T19:07:09.507Z,6.55
2023-06-10T19:09:38.060Z,6.22
2023-06-10T19:12:08.002Z,7.88
2023-06-10T19:14:40.030Z,5.05
2023-06-10T19:17:12.566Z,6.90
2023-06-10T19:19:41.115Z,7.00
2023-06-10T19:22:09.840Z,7.68
2023-06-10T19:24:39.433Z,7.85
2023-06-10T19:27:08.779Z,10.10
2023-06-10T19:29:38.620Z,6.50
2023-06-10T19:32:08.256Z,5.50
2023-06-10T19:34:36.838Z,7.05
2023-06-10T19:37:05.843Z,6.45
2023-06-10T19:39:34.428Z,5.82
2023-06-10T19:42:02.901Z,4.95
2023-06-10T19:44:31.376Z,5.85
2023-06-10T19:47:02.718Z,5.22
2023-06-10T19:49:31.504Z,4.95
2023-06-10T19:52:02.268Z,7.88
2023-06-10T19:54:30.719Z,4.63
2023-06-10T19:56:59.250Z,5.95
2023-06-10T19:59:27.776Z,10.35
2023-06-10T20:01:56.385Z,6.20
2023-06-10T20:04:26.746Z,5.65
2023-06-10T20:06:55.241Z,4.60
2023-06-10T20:09:24.056Z,6.50
2023-06-10T20:11:53.015Z,5.22
2023-06-10T20:14:22.504Z,5.57
2023-06-10T20:16:51.469Z,4.82
2023-06-10T20:19:20.151Z,5.18
2023-06-10T20:21:49.929Z,5.85
2023-06-10T20:24:18.562Z,8.25
2023-06-10T20:26:47.183Z,6.72
2023-06-10T20:29:15.683Z,4.70
2023-06-10T20:31:44.579Z,5.47
2023-06-10T20:34:13.102Z,4.95
2023-06-10T20:36:41.601Z,4.55
2023-06-10T20:39:11.473Z,5.10
2023-06-10T20:41:40.010Z,4.57
2023-06-10T20:44:08.402Z,5.43
2023-06-10T20:46:36.914Z,5.82
2023-06-10T20:49:05.626Z,4.43
2023-06-10T20:51:34.342Z,4.57
2023-06-10T20:54:02.912Z,3.55
2023-06-10T20:56:32.748Z,4.75
2023-06-10T20:59:01.397Z,5.00
2023-06-10T21:01:29.846Z,4.15
2023-06-10T21:03:58.410Z,4.20
2023-06-10T21:06:27.447Z,4.78
2023-06-10T21:08:56.159Z,3.88
2023-06-10T21:11:24.737Z,4.13
2023-06-10T21:13:54.562Z,4.07
2023-06-10T21:16:22.988Z,3.92
2023-06-10T21:18:52.057Z,5.18
2023-06-10T21:21:21.407Z,4.18
2023-06-10T21:23:49.925Z,4.63
2023-06-10T21:26:18.645Z,4.45
2023-06-10T21:28:47.121Z,4.00
2023-06-10T21:31:17.041Z,4.00
2023-06-10T21:33:46.054Z,5.95
2023-06-10T21:36:18.084Z,4.30
2023-06-10T21:38:47.715Z,4.57
2023-06-10T21:41:16.198Z,4.40
2023-06-10T21:43:44.685Z,4.70
2023-06-10T21:46:13.267Z,4.30
2023-06-10T21:48:43.145Z,3.92
2023-06-10T21:51:11.666Z,4.28
2023-06-10T21:53:40.109Z,4.03
2023-06-10T21:56:08.610Z,4.38
2023-06-10T21:58:37.156Z,4.38
2023-06-10T22:01:05.619Z,4.70
2023-06-10T22:03:34.261Z,4.43
2023-06-10T22:06:04.399Z,4.50
2023-06-10T22:08:32.914Z,4.63
2023-06-10T22:11:01.417Z,6.00
2023-06-10T22:13:30.185Z,4.75
2023-06-10T22:15:58.635Z,4.60
2023-06-10T22:18:27.137Z,4.15
2023-06-10T22:20:55.674Z,4.65
2023-06-10T22:23:25.501Z,4.63
2023-06-10T22:25:53.945Z,4.57
2023-06-10T22:28:22.397Z,4.65
2023-06-10T22:30:50.908Z,5.45
2023-06-10T22:33:19.541Z,5.03
2023-06-10T22:35:48.069Z,3.90
2023-06-10T22:38:16.666Z,4.65
2023-06-10T22:40:46.588Z,5.20
2023-06-10T22:43:15.218Z,4.70
2023-06-10T22:45:43.685Z,5.10
2023-06-10T22:48:12.184Z,4.90
2023-06-10T22:50:40.742Z,5.55
2023-06-10T22:53:09.238Z,5.38
2023-06-10T22:55:37.657Z,4.72
2023-06-10T22:58:07.456Z,4.78
2023-06-10T23:00:35.962Z,5.95
2023-06-10T23:03:04.557Z,5.97
2023-06-10T23:05:33.099Z,5.40
2023-06-10T23:08:01.700Z,4.57
2023-06-10T23:10:30.184Z,4.75
2023-06-10T23:12:58.709Z,5.20
2023-06-10T23:15:28.536Z,6.18
2023-06-10T23:17:58.233Z,4.65
2023-06-10T23:20:26.932Z,4.45
2023-06-10T23:22:55.389Z,5.88
2023-06-10T23:25:25.984Z,5.22
2023-06-10T23:27:54.577Z,5.47
2023-06-10T23:30:23.050Z,6.28
2023-06-10T23:32:52.913Z,5.80
2023-06-10T23:35:21.453Z,6.75
2023-06-10T23:37:49.934Z,5.25
2023-06-10T23:40:19.394Z,6.05
2023-06-10T23:42:47.999Z,5.13
2023-06-10T23:45:16.536Z,6.63
2023-06-10T23:47:45.011Z,5.68
2023-06-10T23:50:15.000Z,5.13
2023-06-10T23:52:43.501Z,6.78
2023-06-10T23:55:12.313Z,4.95
2023-06-10T23:57:41.026Z,5.43
